createdAt,value
2019-06-07T00:00:39.181Z,14.16
2019-06-07T00:03:00.295Z,13.90
2019-06-07T00:05:27.869Z,14.00
2019-06-07T00:07:55.355Z,13.91
2019-06-07T00:10:35.898Z,14.03
2019-06-07T00:12:52.197Z,13.96
2019-06-07T00:15:26.932Z,13.74
2019-06-07T00:17:49.089Z,13.90
2019-06-07T00:20:22.665Z,14.12
2019-06-07T00:22:45.964Z,13.98
2019-06-07T00:25:17.696Z,13.99
2019-06-07T00:27:43.167Z,13.91
2019-06-07T00:32:42.789Z,14.13
2019-06-07T00:35:11.891Z,13.95
2019-06-07T00:37:39.744Z,13.84
2019-06-07T00:40:22.461Z,14.04
2019-06-07T00:42:37.173Z,13.84
2019-06-07T00:45:06.018Z,14.10
2019-06-07T00:47:33.723Z,13.95
2019-06-07T00:50:01.172Z,13.74
2019-06-07T00:54:58.004Z,13.83
2019-06-07T00:57:25.471Z,13.80
2019-06-07T00:59:53.156Z,13.58
2019-06-07T01:02:24.727Z,13.88
2019-06-07T01:04:50.144Z,13.69
2019-06-07T01:07:18.762Z,13.69
2019-06-07T01:09:49.104Z,13.93
2019-06-07T01:12:19.407Z,13.59
2019-06-07T01:14:45.919Z,13.74
2019-06-07T01:17:36.314Z,14.00
2019-06-07T01:19:52.728Z,13.59
2019-06-07T01:22:22.665Z,13.71
2019-06-07T01:24:49.701Z,13.53
2019-06-07T01:27:19.017Z,13.54
2019-06-07T01:29:46.532Z,13.66
2019-06-07T01:32:14.114Z,13.69
2019-06-07T01:34:41.572Z,13.60
2019-06-07T01:37:09.052Z,13.80
2019-06-07T01:39:36.693Z,13.47
2019-06-07T01:42:05.448Z,13.48
2019-06-07T01:44:32.974Z,13.55
2019-06-07T01:47:00.499Z,13.76
2019-06-07T01:49:29.556Z,13.88
2019-06-07T01:51:57.382Z,14.00
2019-06-07T01:54:52.127Z,13.72
2019-06-07T01:56:54.231Z,13.96
2019-06-07T01:59:23.268Z,13.41
2019-06-07T02:01:51.371Z,13.54
2019-06-07T02:04:21.670Z,13.86
2019-06-07T02:06:48.258Z,13.88
2019-06-07T02:09:15.725Z,13.58
2019-06-07T02:11:43.153Z,13.16
2019-06-07T02:14:10.640Z,13.29
2019-06-07T02:16:38.124Z,13.64
2019-06-07T02:19:05.569Z,13.24
2019-06-07T02:21:34.538Z,13.30
2019-06-07T02:24:02.514Z,12.72
2019-06-07T02:26:32.516Z,13.12
2019-06-07T02:28:59.330Z,13.70
2019-06-07T02:31:36.261Z,13.49
2019-06-07T02:33:57.484Z,13.60
2019-06-07T02:36:29.597Z,13.58
2019-06-07T02:38:54.436Z,12.96
2019-06-07T02:41:25.824Z,13.26
2019-06-07T02:43:51.250Z,12.70
2019-06-07T02:46:35.220Z,12.69
2019-06-07T02:48:55.163Z,13.54
2019-06-07T02:51:24.555Z,12.98
2019-06-07T02:53:52.345Z,13.02
2019-06-07T02:56:39.042Z,13.00
2019-06-07T02:58:49.266Z,13.21
2019-06-07T03:01:17.261Z,13.07
2019-06-07T03:03:45.166Z,13.41
2019-06-07T03:06:13.740Z,13.05
2019-06-07T03:08:42.594Z,13.27
2019-06-07T03:11:11.532Z,13.01
2019-06-07T03:13:41.025Z,13.37
2019-06-07T03:16:10.812Z,13.58
2019-06-07T03:19:04.173Z,13.31
2019-06-07T03:21:36.365Z,13.26
2019-06-07T03:24:04.297Z,12.49
2019-06-07T03:26:35.744Z,13.31
2019-06-07T03:29:01.213Z,12.81
2019-06-07T03:31:35.484Z,12.23
2019-06-07T03:33:58.095Z,13.31
2019-06-07T03:36:26.142Z,12.71
2019-06-07T03:38:54.857Z,12.52
2019-06-07T03:41:22.508Z,12.62
2019-06-07T03:43:49.984Z,12.83
2019-06-07T03:46:17.523Z,12.41
2019-06-07T03:48:45.061Z,12.71
2019-06-07T03:51:24.677Z,12.63
2019-06-07T03:53:41.917Z,13.12
2019-06-07T03:56:09.713Z,12.53
2019-06-07T03:58:48.625Z,12.67
2019-06-07T04:01:08.472Z,12.15
2019-06-07T04:03:45.386Z,11.85
2019-06-07T04:06:05.387Z,11.95
2019-06-07T04:08:34.415Z,11.94
2019-06-07T04:11:02.303Z,12.86
2019-06-07T04:13:34.270Z,12.26
2019-06-07T04:15:59.174Z,12.64
2019-06-07T04:18:26.597Z,12.85
2019-06-07T04:20:54.093Z,12.84
2019-06-07T04:23:28.276Z,13.44
2019-06-07T04:25:50.984Z,13.55
2019-06-07T04:28:18.492Z,13.15
2019-06-07T04:30:46.052Z,12.83
2019-06-07T04:33:16.702Z,13.18
2019-06-07T04:35:45.313Z,13.28
2019-06-07T04:38:13.170Z,13.31
2019-06-07T04:40:42.919Z,12.60
2019-06-07T04:43:10.866Z,12.80
2019-06-07T04:45:45.861Z,13.25
2019-06-07T04:48:09.873Z,13.07
2019-06-07T04:50:41.059Z,13.32
2019-06-07T04:53:08.735Z,13.12
2019-06-07T04:55:38.683Z,13.40
2019-06-07T04:58:06.045Z,13.09
2019-06-07T05:00:49.871Z,13.55
2019-06-07T05:03:04.284Z,13.31
2019-06-07T05:05:34.342Z,13.34
2019-06-07T05:08:07.574Z,13.63
2019-06-07T05:10:35.093Z,13.64
2019-06-07T05:13:00.694Z,13.51
2019-06-07T05:15:28.283Z,13.72
2019-06-07T05:17:55.951Z,13.83
2019-06-07T05:20:23.748Z,13.83
2019-06-07T05:22:51.219Z,14.13
2019-06-07T05:25:18.879Z,13.71
2019-06-07T05:27:47.054Z,13.64
2019-06-07T05:31:02.009Z,14.05
2019-06-07T05:33:03.025Z,14.26
2019-06-07T05:35:33.094Z,13.94
2019-06-07T05:38:01.056Z,13.63
2019-06-07T05:40:34.922Z,14.47
2019-06-07T05:43:04.148Z,14.39
2019-06-07T05:45:39.128Z,14.22
2019-06-07T05:48:06.475Z,14.15
2019-06-07T05:50:44.997Z,13.92
2019-06-07T05:53:04.355Z,14.28
2019-06-07T05:55:32.728Z,14.81
2019-06-07T05:58:00.391Z,14.54
2019-06-07T06:00:27.997Z,14.71
2019-06-07T06:03:04.873Z,14.67
2019-06-07T06:05:34.343Z,14.65
2019-06-07T06:07:54.609Z,14.87
2019-06-07T06:10:22.188Z,14.74
2019-06-07T06:12:51.635Z,14.98
2019-06-07T06:15:19.215Z,14.88
2019-06-07T06:17:53.005Z,15.14
2019-06-07T06:20:17.976Z,15.20
2019-06-07T06:22:48.826Z,15.39
2019-06-07T06:25:31.908Z,15.55
2019-06-07T06:30:18.477Z,15.86
2019-06-07T06:32:54.373Z,15.94
2019-06-07T06:35:15.412Z,15.86
2019-06-07T06:37:47.126Z,16.00
2019-06-07T06:40:13.095Z,16.06
2019-06-07T06:42:42.203Z,16.15
2019-06-07T06:45:10.624Z,16.46
2019-06-07T06:47:38.387Z,16.42
2019-06-07T06:50:07.378Z,16.56
2019-06-07T06:52:34.990Z,16.89
2019-06-07T06:55:02.803Z,16.87
2019-06-07T06:57:30.299Z,17.45
2019-06-07T06:59:57.917Z,17.13
2019-06-07T07:02:25.401Z,17.10
2019-06-07T07:04:53.987Z,17.33
2019-06-07T07:07:22.743Z,17.60
2019-06-07T07:09:57.314Z,17.49
2019-06-07T07:12:19.738Z,17.86
2019-06-07T07:14:49.575Z,17.41
2019-06-07T07:17:16.710Z,18.06
2019-06-07T07:19:47.923Z,17.45
2019-06-07T07:22:13.673Z,17.65
2019-06-07T07:24:41.890Z,17.72
2019-06-07T07:27:09.441Z,17.96
2019-06-07T07:29:36.962Z,17.90
2019-06-07T07:32:04.447Z,18.04
2019-06-07T07:34:36.581Z,18.00
2019-06-07T07:37:01.629Z,18.21
2019-06-07T07:39:29.134Z,17.89
2019-06-07T07:42:18.127Z,18.19
2019-06-07T07:44:26.376Z,18.29
2019-06-07T07:46:54.709Z,18.44
2019-06-07T07:49:23.205Z,18.35
2019-06-07T07:51:55.052Z,18.45
2019-06-07T07:54:20.341Z,18.67
2019-06-07T07:56:49.067Z,18.47
2019-06-07T07:59:17.357Z,18.54
2019-06-07T08:01:46.122Z,18.77
2019-06-07T08:04:13.756Z,18.70
2019-06-07T08:06:41.314Z,19.01
2019-06-07T08:09:08.875Z,19.02
2019-06-07T08:11:36.410Z,19.33
2019-06-07T08:14:04.115Z,18.76
2019-06-07T08:16:31.637Z,19.25
2019-06-07T08:19:04.026Z,19.06
2019-06-07T08:21:28.885Z,19.13
2019-06-07T08:24:00.741Z,19.06
2019-06-07T08:26:25.848Z,19.42
2019-06-07T08:28:58.513Z,19.39
2019-06-07T08:31:22.797Z,19.28
2019-06-07T08:33:50.291Z,19.64
2019-06-07T08:36:25.168Z,19.67
2019-06-07T08:38:51.106Z,19.77
2019-06-07T08:41:16.679Z,19.98
2019-06-07T08:43:44.196Z,20.12
2019-06-07T08:46:11.703Z,19.93
2019-06-07T08:48:39.182Z,20.22
2019-06-07T08:51:08.579Z,20.37
2019-06-07T08:53:36.564Z,20.53
2019-06-07T08:56:09.131Z,20.51
2019-06-07T08:58:34.022Z,20.37
2019-06-07T09:01:07.804Z,20.55
2019-06-07T09:03:31.173Z,20.60
2019-06-07T09:06:06.170Z,20.66
2019-06-07T09:08:30.805Z,20.99
2019-06-07T09:10:59.468Z,20.92
2019-06-07T09:13:26.937Z,20.83
2019-06-07T09:15:55.955Z,20.70
2019-06-07T09:18:40.713Z,20.85
2019-06-07T09:20:53.690Z,20.94
2019-06-07T09:23:22.719Z,20.85
2019-06-07T09:26:01.030Z,20.87
2019-06-07T09:28:20.835Z,21.24
2019-06-07T09:30:48.947Z,21.82
2019-06-07T09:33:16.577Z,21.71
2019-06-07T09:35:44.277Z,21.84
2019-06-07T09:38:24.319Z,21.88
2019-06-07T09:40:41.529Z,21.76
2019-06-07T09:45:38.697Z,22.02
2019-06-07T09:48:13.817Z,22.19
2019-06-07T09:50:35.798Z,22.10
2019-06-07T09:53:13.453Z,22.09
2019-06-07T09:55:33.436Z,22.10
2019-06-07T09:58:18.343Z,22.29
2019-06-07T10:00:40.739Z,22.42
2019-06-07T10:03:14.147Z,22.54
2019-06-07T10:05:30.664Z,22.45
2019-06-07T10:08:12.090Z,22.46
2019-06-07T10:10:35.313Z,23.25
2019-06-07T10:12:57.424Z,22.80
2019-06-07T10:15:24.993Z,23.27
2019-06-07T10:17:52.496Z,23.19
2019-06-07T10:20:20.290Z,23.51
2019-06-07T10:22:48.050Z,23.48
2019-06-07T10:25:15.783Z,23.37
2019-06-07T10:27:43.440Z,23.57
2019-06-07T10:30:11.832Z,23.95
2019-06-07T10:32:39.481Z,24.15
2019-06-07T10:35:08.192Z,23.88
2019-06-07T10:37:36.851Z,24.70
2019-06-07T10:40:05.430Z,24.76
2019-06-07T10:42:33.079Z,24.76
2019-06-07T10:45:02.362Z,25.40
2019-06-07T10:47:29.971Z,25.40
2019-06-07T10:49:57.599Z,25.50
2019-06-07T10:52:25.151Z,26.15
2019-06-07T10:54:52.637Z,25.70
2019-06-07T10:57:20.349Z,25.87
2019-06-07T10:59:48.001Z,25.95
2019-06-07T11:02:15.521Z,26.10
2019-06-07T11:04:43.279Z,26.76
2019-06-07T11:07:11.976Z,26.07
2019-06-07T11:09:39.675Z,26.16
2019-06-07T11:12:08.421Z,26.87
2019-06-07T11:14:36.094Z,26.74
2019-06-07T11:17:05.119Z,27.19
2019-06-07T11:19:32.990Z,27.51
2019-06-07T11:22:00.521Z,27.21
2019-06-07T11:24:28.017Z,27.31
2019-06-07T11:26:55.799Z,27.62
2019-06-07T11:29:23.459Z,27.32
2019-06-07T11:31:51.112Z,27.79
2019-06-07T11:34:18.966Z,28.04
2019-06-07T11:36:46.553Z,27.64
2019-06-07T11:39:15.175Z,27.86
2019-06-07T11:41:42.861Z,27.61
2019-06-07T11:44:11.002Z,28.07
2019-06-07T11:46:38.933Z,28.08
2019-06-07T11:49:06.545Z,27.87
2019-06-07T11:51:34.137Z,28.24
2019-06-07T11:54:01.809Z,27.61
2019-06-07T11:56:29.359Z,28.48
2019-06-07T11:58:57.182Z,28.59
2019-06-07T12:01:24.833Z,28.50
2019-06-07T12:03:52.528Z,28.42
2019-06-07T12:06:20.176Z,28.43
2019-06-07T12:08:47.849Z,28.11
2019-06-07T12:11:16.529Z,28.65
2019-06-07T12:13:44.496Z,28.68
2019-06-07T12:16:13.293Z,28.36
2019-06-07T12:18:41.142Z,28.53
2019-06-07T12:21:09.569Z,28.37
2019-06-07T12:23:37.274Z,28.95
2019-06-07T12:26:04.998Z,28.81
2019-06-07T12:28:32.654Z,29.25
2019-06-07T12:31:00.364Z,29.28
2019-06-07T12:33:27.981Z,28.94
2019-06-07T12:35:55.544Z,29.64
2019-06-07T12:38:23.208Z,28.97
2019-06-07T12:40:57.515Z,28.80
2019-06-07T12:43:20.863Z,29.33
2019-06-07T12:45:48.576Z,29.23
2019-06-07T12:48:19.283Z,29.61
2019-06-07T12:50:45.498Z,29.22
2019-06-07T12:53:13.609Z,29.97
2019-06-07T12:55:41.369Z,29.95
2019-06-07T12:58:09.009Z,29.92
2019-06-07T13:00:36.570Z,30.01
2019-06-07T13:03:05.122Z,29.68
2019-06-07T13:05:32.807Z,29.73
2019-06-07T13:08:00.587Z,29.74
2019-06-07T13:10:28.559Z,29.55
2019-06-07T13:12:56.595Z,30.26
2019-06-07T13:15:25.962Z,29.98
2019-06-07T13:17:53.750Z,30.38
2019-06-07T13:20:22.662Z,30.78
2019-06-07T13:22:50.749Z,30.45
2019-06-07T13:25:21.174Z,30.03
2019-06-07T13:27:48.859Z,30.96
2019-06-07T13:30:16.964Z,30.22
2019-06-07T13:32:44.889Z,30.34
2019-06-07T13:35:14.016Z,29.99
2019-06-07T13:37:42.231Z,30.48
2019-06-07T13:40:09.895Z,29.54
2019-06-07T13:42:37.595Z,30.99
2019-06-07T13:45:05.795Z,30.55
2019-06-07T13:47:33.328Z,30.84
2019-06-07T13:50:01.044Z,30.36
2019-06-07T13:52:28.631Z,30.89
2019-06-07T13:54:56.354Z,30.43
2019-06-07T13:57:24.361Z,31.63
2019-06-07T13:59:52.276Z,30.91
2019-06-07T14:02:20.781Z,31.43
2019-06-07T14:04:49.042Z,31.23
2019-06-07T14:07:16.624Z,30.71
2019-06-07T14:09:44.150Z,30.69
2019-06-07T14:12:11.919Z,30.86
2019-06-07T14:14:39.613Z,31.14
2019-06-07T14:17:07.187Z,31.30
2019-06-07T14:19:34.708Z,30.84
2019-06-07T14:22:02.395Z,30.81
2019-06-07T14:24:31.099Z,31.15
2019-06-07T14:27:07.660Z,31.19
2019-06-07T14:29:36.103Z,30.93
2019-06-07T14:32:06.518Z,32.42
2019-06-07T14:34:35.228Z,32.19
2019-06-07T14:37:03.118Z,31.43
2019-06-07T14:39:31.443Z,31.82
2019-06-07T14:42:09.357Z,31.64
2019-06-07T14:44:29.846Z,31.46
2019-06-07T14:46:57.719Z,32.07
2019-06-07T14:49:26.393Z,32.79
2019-06-07T14:51:54.123Z,31.56
2019-06-07T14:54:21.601Z,31.35
2019-06-07T14:56:49.131Z,32.26
2019-06-07T14:59:16.865Z,32.63
2019-06-07T15:01:44.414Z,32.25
2019-06-07T15:04:11.895Z,31.70
2019-06-07T15:06:39.749Z,31.65
2019-06-07T15:09:07.499Z,31.45
2019-06-07T15:11:35.107Z,32.05
2019-06-07T15:14:03.250Z,31.73
2019-06-07T15:16:31.964Z,32.39
2019-06-07T15:18:59.757Z,32.96
2019-06-07T15:21:28.600Z,31.59
2019-06-07T15:23:56.293Z,31.75
2019-06-07T15:26:25.165Z,32.12
2019-06-07T15:28:52.754Z,32.04
2019-06-07T15:31:20.312Z,31.28
2019-06-07T15:33:47.822Z,31.71
2019-06-07T15:36:15.493Z,31.84
2019-06-07T15:38:42.991Z,32.00
2019-06-07T15:41:10.601Z,32.07
2019-06-07T15:43:39.373Z,31.26
2019-06-07T15:46:07.083Z,32.27
2019-06-07T15:48:36.079Z,31.91
2019-06-07T15:51:03.851Z,31.59
2019-06-07T15:53:33.993Z,31.89
2019-06-07T15:56:01.026Z,31.51
2019-06-07T15:58:28.904Z,31.76
2019-06-07T16:00:56.433Z,31.92
2019-06-07T16:03:23.965Z,31.79
2019-06-07T16:05:51.568Z,32.41
2019-06-07T16:08:19.060Z,32.01
2019-06-07T16:10:46.702Z,31.81
2019-06-07T16:13:14.876Z,31.72
2019-06-07T16:15:43.234Z,31.97
2019-06-07T16:18:11.157Z,31.37
2019-06-07T16:20:39.582Z,31.62
2019-06-07T16:23:07.296Z,31.97
2019-06-07T16:25:35.789Z,31.30
2019-06-07T16:28:03.512Z,31.69
2019-06-07T16:30:31.223Z,31.54
2019-06-07T16:32:58.725Z,31.35
2019-06-07T16:35:26.262Z,31.30
2019-06-07T16:37:53.763Z,32.30
2019-06-07T16:40:21.471Z,32.41
2019-06-07T16:42:49.260Z,31.96
2019-06-07T16:45:17.304Z,31.45
2019-06-07T16:47:47.471Z,31.01
2019-06-07T16:50:14.450Z,32.11
2019-06-07T16:52:42.124Z,31.56
2019-06-07T16:55:10.521Z,31.51
2019-06-07T16:57:38.706Z,31.00
2019-06-07T17:00:06.957Z,30.56
2019-06-07T17:02:34.427Z,31.28
2019-06-07T17:05:02.449Z,31.37
2019-06-07T17:07:30.287Z,31.15
2019-06-07T17:09:58.023Z,31.24
2019-06-07T17:12:25.558Z,30.99
2019-06-07T17:14:53.309Z,30.66
2019-06-07T17:17:20.953Z,30.17
2019-06-07T17:19:49.257Z,30.35
2019-06-07T17:22:16.866Z,31.08
2019-06-07T17:24:45.514Z,30.43
2019-06-07T17:27:13.215Z,29.88
2019-06-07T17:29:41.990Z,29.85
2019-06-07T17:32:15.924Z,30.45
2019-06-07T17:34:44.315Z,30.45
2019-06-07T17:37:12.116Z,28.77
2019-06-07T17:39:40.601Z,28.52
2019-06-07T17:42:08.535Z,28.41
2019-06-07T17:44:36.258Z,28.06
2019-06-07T17:47:03.962Z,27.36
2019-06-07T17:49:31.556Z,27.63
2019-06-07T17:51:59.219Z,27.70
2019-06-07T17:54:26.853Z,27.28
2019-06-07T17:56:54.390Z,27.30
2019-06-07T17:59:21.903Z,26.91
2019-06-07T18:02:12.307Z,26.99
2019-06-07T18:04:19.088Z,26.90
2019-06-07T18:06:47.352Z,26.19
2019-06-07T18:09:15.232Z,26.61
2019-06-07T18:11:43.930Z,26.38
2019-06-07T18:14:11.622Z,26.53
2019-06-07T18:16:39.148Z,26.19
2019-06-07T18:19:06.970Z,26.41
2019-06-07T18:21:34.452Z,25.76
2019-06-07T18:24:02.061Z,26.44
2019-06-07T18:26:29.594Z,25.96
2019-06-07T18:28:57.283Z,25.85
2019-06-07T18:31:24.788Z,26.07
2019-06-07T18:33:53.005Z,25.14
2019-06-07T18:36:20.653Z,25.14
2019-06-07T18:38:48.961Z,24.43
2019-06-07T18:41:16.835Z,24.38
2019-06-07T18:43:44.414Z,25.11
2019-06-07T18:46:11.975Z,24.16
2019-06-07T18:48:39.659Z,24.16
2019-06-07T18:51:07.773Z,24.34
2019-06-07T18:53:35.344Z,24.27
2019-06-07T18:56:02.987Z,24.49
2019-06-07T18:58:30.690Z,24.20
2019-06-07T19:00:58.363Z,23.32
2019-06-07T19:03:25.913Z,23.27
2019-06-07T19:05:54.259Z,23.77
2019-06-07T19:08:21.980Z,23.89
2019-06-07T19:10:50.680Z,23.82
2019-06-07T19:13:18.455Z,23.90
2019-06-07T19:15:46.248Z,23.96
2019-06-07T19:18:13.810Z,23.55
2019-06-07T19:20:41.465Z,23.85
2019-06-07T19:23:09.159Z,22.97
2019-06-07T19:25:36.850Z,23.42
2019-06-07T19:28:04.596Z,22.73
2019-06-07T19:30:32.254Z,23.19
2019-06-07T19:33:01.391Z,23.70
2019-06-07T19:35:29.214Z,23.19
2019-06-07T19:37:57.859Z,22.80
2019-06-07T19:40:25.791Z,23.08
2019-06-07T19:42:54.142Z,23.03
2019-06-07T19:45:30.343Z,23.60
2019-06-07T19:47:52.360Z,23.97
2019-06-07T19:50:20.361Z,22.83
2019-06-07T19:52:47.818Z,23.63
2019-06-07T19:55:15.546Z,23.41
2019-06-07T19:57:43.171Z,23.67
2019-06-07T20:00:14.577Z,23.38
2019-06-07T20:02:42.097Z,22.72
2019-06-07T20:05:12.712Z,22.97
2019-06-07T20:07:40.494Z,22.94
2019-06-07T20:10:08.190Z,22.98
2019-06-07T20:12:35.798Z,23.68
2019-06-07T20:15:24.681Z,23.57
2019-06-07T20:17:33.615Z,22.61
2019-06-07T20:20:02.665Z,22.87
2019-06-07T20:22:30.383Z,23.34
2019-06-07T20:24:58.856Z,22.60
2019-06-07T20:27:26.501Z,22.92
2019-06-07T20:29:53.950Z,22.41
2019-06-07T20:32:21.473Z,22.74
2019-06-07T20:34:48.970Z,23.07
2019-06-07T20:37:16.411Z,22.63
2019-06-07T20:39:43.909Z,22.80
2019-06-07T20:42:11.366Z,23.10
2019-06-07T20:44:38.858Z,22.68
2019-06-07T20:47:06.371Z,22.58
2019-06-07T20:49:33.825Z,23.11
2019-06-07T20:52:03.036Z,23.06
2019-06-07T20:54:30.843Z,22.99
2019-06-07T20:56:58.862Z,22.98
2019-06-07T20:59:26.548Z,22.80
2019-06-07T21:01:54.164Z,22.29
2019-06-07T21:04:21.616Z,22.42
2019-06-07T21:06:49.146Z,22.38
2019-06-07T21:09:16.884Z,22.00
2019-06-07T21:11:44.429Z,21.87
2019-06-07T21:14:11.949Z,21.72
2019-06-07T21:16:39.479Z,22.12
2019-06-07T21:19:08.266Z,21.87
2019-06-07T21:21:35.943Z,22.08
2019-06-07T21:24:04.624Z,22.15
2019-06-07T21:26:32.239Z,22.24
2019-06-07T21:29:01.164Z,21.80
2019-06-07T21:31:29.201Z,21.72
2019-06-07T21:33:57.006Z,22.55
2019-06-07T21:36:24.508Z,22.11
2019-06-07T21:38:52.120Z,21.80
2019-06-07T21:41:19.792Z,21.48
2019-06-07T21:43:47.345Z,21.73
2019-06-07T21:46:20.226Z,22.02
2019-06-07T21:48:44.372Z,22.30
2019-06-07T21:51:12.708Z,22.63
2019-06-07T21:53:40.354Z,22.57
2019-06-07T21:56:09.081Z,22.75
2019-06-07T21:58:36.996Z,22.29
2019-06-07T22:01:22.516Z,22.08
2019-06-07T22:03:50.130Z,21.99
2019-06-07T22:06:17.854Z,22.14
2019-06-07T22:08:45.595Z,21.80
2019-06-07T22:11:14.177Z,21.45
2019-06-07T22:13:41.902Z,21.62
2019-06-07T22:16:23.389Z,21.53
2019-06-07T22:18:38.997Z,21.62
2019-06-07T22:21:06.559Z,21.63
2019-06-07T22:23:34.092Z,21.53
2019-06-07T22:26:01.527Z,21.21
2019-06-07T22:28:29.016Z,21.13
2019-06-07T22:30:56.538Z,20.87
2019-06-07T22:33:24.026Z,21.10
2019-06-07T22:35:51.519Z,20.99
2019-06-07T22:38:18.971Z,20.66
2019-06-07T22:40:46.462Z,20.29
2019-06-07T22:43:13.932Z,20.35
2019-06-07T22:45:41.463Z,20.48
2019-06-07T22:48:08.989Z,20.14
2019-06-07T22:50:36.452Z,19.50
2019-06-07T22:53:04.067Z,19.96
2019-06-07T22:55:31.516Z,19.31
2019-06-07T22:57:59.062Z,19.25
2019-06-07T23:00:28.011Z,19.75
2019-06-07T23:02:55.677Z,18.79
2019-06-07T23:05:23.209Z,18.78
2019-06-07T23:07:50.779Z,19.14
2019-06-07T23:10:19.557Z,19.22
2019-06-07T23:12:47.622Z,19.53
2019-06-07T23:15:17.900Z,20.47
2019-06-07T23:17:46.089Z,20.34
2019-06-07T23:20:15.898Z,20.19
2019-06-07T23:22:43.643Z,20.24
2019-06-07T23:25:12.242Z,19.92
2019-06-07T23:27:40.067Z,20.03
2019-06-07T23:30:08.846Z,19.95
2019-06-07T23:32:36.837Z,19.76
2019-06-07T23:35:05.012Z,19.82
2019-06-07T23:37:32.553Z,19.50
2019-06-07T23:39:59.975Z,19.53
2019-06-07T23:42:27.398Z,19.27
2019-06-07T23:44:54.902Z,19.14
2019-06-07T23:47:22.520Z,19.10
2019-06-07T23:49:50.020Z,18.82
2019-06-07T23:52:17.953Z,18.84
2019-06-07T23:54:45.576Z,18.79
2019-06-07T23:57:13.999Z,18.75
2019-06-07T23:59:41.647Z,18.79
